Time;durP1;ratioP1;P1;durP2;ratioP2;P2;SDS_P1;SDS_P2;PMS_P1;PMS_P2;Temp;Humidity;BMP_temperature;BMP_pressure;BME280_temperature;BME280_humidity;BME280_pressure;Samples;Min_cycle;Max_cycle;Signal;HPM_P1;HPM_P2
2024/05/02 00:01:31;;;;;;;5.18;3.03;;;;;;;17.87;48.72;96758.91;5426465;26;20044;-61
2024/05/02 00:04:17;;;;;;;4.10;2.70;;;;;;;17.84;49.00;96756.50;5415630;26;20006;-62
2024/05/02 00:07:04;;;;;;;4.95;2.47;;;;;;;17.71;48.64;96756.81;5417435;26;20412;-66
2024/05/02 00:09:49;;;;;;;5.00;2.90;;;;;;;17.73;49.45;96758.34;5415777;26;20397;-64
2024/05/02 00:12:35;;;;;;;4.57;2.63;;;;;;;17.91;49.04;96755.84;5416007;26;20442;-65
2024/05/02 00:15:21;;;;;;;5.70;3.10;;;;;;;17.91;48.42;96750.53;5417266;26;20066;-64
2024/05/02 00:18:06;;;;;;;5.47;3.15;;;;;;;17.95;49.54;96753.72;5415819;26;20010;-60
2024/05/02 00:20:52;;;;;;;3.67;2.38;;;;;;;17.72;48.61;96738.09;5415578;26;20068;-63
2024/05/02 00:23:38;;;;;;;5.18;3.25;;;;;;;17.24;48.84;96672.63;5415631;26;20003;-66
2024/05/02 00:26:23;;;;;;;4.70;2.60;;;;;;;17.52;49.16;96752.38;5390734;26;20397;-65
2024/05/02 00:29:09;;;;;;;4.82;2.90;;;;;;;17.59;49.58;96748.16;5415516;26;20007;-61
2024/05/02 00:31:55;;;;;;;4.32;3.08;;;;;;;17.25;50.07;96745.97;5390462;26;20074;-63
2024/05/02 00:34:41;;;;;;;6.07;2.90;;;;;;;17.36;49.84;96742.31;5390539;26;20068;-61
2024/05/02 00:37:27;;;;;;;7.38;3.17;;;;;;;17.16;49.71;96745.00;5415441;26;20072;-65
2024/05/02 00:40:13;;;;;;;5.05;3.05;;;;;;;16.96;50.77;96744.13;5391569;26;20037;-61
2024/05/02 00:42:59;;;;;;;4.25;3.00;;;;;;;17.05;50.73;96742.47;5418783;26;20035;-63
2024/05/02 00:45:45;;;;;;;4.90;2.80;;;;;;;17.06;50.56;96740.66;5418735;26;20045;-61
2024/05/02 00:48:31;;;;;;;6.63;3.03;;;;;;;16.95;50.56;96744.28;5418885;26;20076;-65
2024/05/02 00:51:17;;;;;;;6.60;2.80;;;;;;;16.74;50.70;96744.34;5393854;26;20006;-62
2024/05/02 00:54:03;;;;;;;5.85;3.00;;;;;;;16.76;51.63;96740.59;5418723;26;20082;-65
2024/05/02 00:56:49;;;;;;;4.80;3.10;;;;;;;16.89;50.77;96737.69;5418698;26;20006;-62
2024/05/02 00:59:35;;;;;;;5.55;3.08;;;;;;;17.13;50.33;96739.97;5418581;26;20044;-64
2024/05/02 01:02:21;;;;;;;6.10;3.17;;;;;;;17.31;50.45;96741.91;5418491;26;20006;-59
2024/05/02 01:05:06;;;;;;;4.80;3.10;;;;;;;17.35;50.40;96741.50;5393458;26;20007;-61
2024/05/02 01:07:52;;;;;;;5.65;3.30;;;;;;;17.50;49.54;96738.41;5418343;26;20401;-65
2024/05/02 01:10:39;;;;;;;5.10;3.10;;;;;;;16.97;50.31;96727.25;5418531;26;20094;-64
2024/05/02 01:13:26;;;;;;;5.45;2.95;;;;;;;17.14;50.97;96728.38;5418321;26;20007;-64
2024/05/02 01:16:13;;;;;;;4.57;2.85;;;;;;;17.10;50.15;96737.56;5418309;26;20021;-66
2024/05/02 01:18:59;;;;;;;6.97;3.10;;;;;;;17.15;50.93;96735.34;5393326;26;20401;-62
2024/05/02 01:21:45;;;;;;;5.28;3.20;;;;;;;17.09;50.39;96732.41;5393296;26;20006;-65
2024/05/02 01:24:31;;;;;;;4.80;3.13;;;;;;;16.84;51.28;96720.53;5393134;26;20007;-60
2024/05/02 01:27:17;;;;;;;5.15;2.92;;;;;;;16.97;51.83;96729.91;5418141;26;20006;-62
2024/05/02 01:30:02;;;;;;;4.20;3.00;;;;;;;17.11;50.77;96720.69;5393164;26;20073;-64
2024/05/02 01:32:48;;;;;;;6.00;3.13;;;;;;;16.97;50.86;96729.91;5419407;26;20014;-64
2024/05/02 01:35:34;;;;;;;5.72;3.40;;;;;;;16.98;50.78;96704.19;5418030;26;20073;-60
2024/05/02 01:38:20;;;;;;;4.85;3.08;;;;;;;17.16;51.19;96714.97;5418075;26;20006;-64
2024/05/02 01:41:06;;;;;;;5.05;3.08;;;;;;;17.12;50.18;96700.28;5418050;26;20449;-66
2024/05/02 01:43:52;;;;;;;4.88;3.38;;;;;;;17.00;50.38;96723.47;5418056;26;20073;-63
2024/05/02 01:46:37;;;;;;;5.45;3.10;;;;;;;17.05;51.29;96731.00;5417779;26;20028;-59
2024/05/02 01:49:23;;;;;;;5.78;3.10;;;;;;;16.65;51.83;96710.69;5417875;26;20072;-61
2024/05/02 01:52:10;;;;;;;4.85;3.20;;;;;;;17.07;52.24;96721.97;5417008;26;20073;-65
2024/05/02 01:54:56;;;;;;;5.57;3.13;;;;;;;17.06;53.12;96717.63;5417985;26;20068;-60
2024/05/02 01:57:42;;;;;;;6.63;3.58;;;;;;;17.11;51.15;96704.78;5417903;26;20046;-61
2024/05/02 02:00:28;;;;;;;5.00;2.97;;;;;;;17.09;52.17;96711.19;5392791;26;20006;-61
2024/05/02 02:03:14;;;;;;;4.70;3.00;;;;;;;16.81;51.90;96716.31;5393211;26;20007;-61
2024/05/02 02:06:00;;;;;;;5.65;3.22;;;;;;;16.79;51.63;96712.94;5428129;26;20005;-63
2024/05/02 02:08:45;;;;;;;4.82;3.15;;;;;;;16.70;51.81;96711.97;5403132;26;20006;-60
2024/05/02 02:11:32;;;;;;;4.32;3.03;;;;;;;16.74;52.16;96710.72;5428458;26;20005;-65
2024/05/02 02:14:18;;;;;;;4.28;3.30;;;;;;;16.90;52.51;96704.91;5427784;26;20507;-64
2024/05/02 02:17:04;;;;;;;6.25;3.83;;;;;;;16.85;53.42;96695.69;5428383;26;20040;-60
2024/05/02 02:19:49;;;;;;;4.75;3.00;;;;;;;16.88;53.91;96706.00;5428055;26;20005;-62
2024/05/02 02:22:36;;;;;;;3.65;2.90;;;;;;;16.90;52.33;96701.44;5428153;26;20005;-60
2024/05/02 02:25:22;;;;;;;5.28;3.30;;;;;;;16.88;52.70;96693.59;5427836;26;20063;-61
2024/05/02 02:28:08;;;;;;;8.40;3.45;;;;;;;16.74;52.71;96704.56;5403060;26;20335;-64
2024/05/02 02:30:54;;;;;;;4.85;3.47;;;;;;;16.97;52.16;96702.53;5403398;26;20005;-61
2024/05/02 02:33:40;;;;;;;6.55;3.47;;;;;;;16.76;52.05;96699.97;5454835;26;20006;-61
2024/05/02 02:36:26;;;;;;;5.03;3.38;;;;;;;16.34;52.98;96676.34;5427948;26;20049;-62
2024/05/02 02:39:12;;;;;;;8.18;3.35;;;;;;;16.75;51.95;96696.47;5427744;26;20005;-60
2024/05/02 02:41:58;;;;;;;6.78;3.45;;;;;;;16.66;53.19;96691.19;5427580;26;20515;-60
2024/05/02 02:44:43;;;;;;;5.90;3.85;;;;;;;16.60;52.99;96685.44;5402944;26;20067;-60
2024/05/02 02:47:29;;;;;;;4.50;3.30;;;;;;;16.55;53.12;96692.97;5427752;26;20010;-60
2024/05/02 02:50:15;;;;;;;6.60;3.50;;;;;;;16.57;53.17;96688.38;5403000;26;20338;-61
2024/05/02 02:53:13;;;;;;;4.90;3.20;;;;;;;16.61;53.06;96691.56;5454567;26;20068;-63
2024/05/02 02:55:59;;;;;;;6.32;3.45;;;;;;;16.61;53.01;96684.47;5402435;26;20006;-61
2024/05/02 02:58:44;;;;;;;4.45;3.05;;;;;;;16.56;53.10;96678.72;5454400;26;20006;-61
2024/05/02 03:01:30;;;;;;;5.50;3.25;;;;;;;16.27;53.99;96652.19;5427309;26;20068;-60
2024/05/02 03:04:17;;;;;;;6.15;3.22;;;;;;;16.38;53.91;96675.09;5401664;26;20539;-62
2024/05/02 03:07:03;;;;;;;5.47;3.45;;;;;;;16.51;53.49;96672.16;5427246;26;20010;-64
2024/05/02 03:09:49;;;;;;;6.78;3.42;;;;;;;16.50;53.12;96663.38;5402230;26;20420;-64
2024/05/02 03:12:35;;;;;;;5.68;3.38;;;;;;;16.16;54.06;96646.97;5427222;26;20052;-63
2024/05/02 03:15:21;;;;;;;6.03;3.70;;;;;;;16.02;54.79;96667.59;5427254;26;20009;-61
2024/05/02 03:18:07;;;;;;;5.03;3.28;;;;;;;15.90;55.01;96658.06;5427070;26;20067;-64
2024/05/02 03:20:54;;;;;;;4.93;3.25;;;;;;;16.13;54.79;96666.66;5402328;26;20018;-63
2024/05/02 03:23:41;;;;;;;5.22;3.58;;;;;;;16.23;54.78;96666.66;5426925;26;20006;-62
2024/05/02 03:26:27;;;;;;;6.63;3.40;;;;;;;16.18;55.05;96661.78;5426838;26;20008;-64
2024/05/02 03:29:13;;;;;;;9.45;4.43;;;;;;;16.17;54.81;96659.28;5427071;26;20009;-64
2024/05/02 03:31:59;;;;;;;6.75;3.88;;;;;;;16.00;55.24;96650.16;5426863;26;20072;-65
2024/05/02 03:34:45;;;;;;;10.15;4.30;;;;;;;16.04;54.57;96640.94;5426878;26;20072;-65
2024/05/02 03:37:31;;;;;;;9.00;4.47;;;;;;;16.17;54.95;96648.69;5426648;26;20511;-65
2024/05/02 03:40:17;;;;;;;12.30;5.25;;;;;;;16.12;55.02;96641.13;5402284;26;20326;-61
2024/05/02 03:43:03;;;;;;;11.57;5.03;;;;;;;16.10;55.97;96650.19;5426694;26;20006;-64
2024/05/02 03:45:49;;;;;;;8.98;4.55;;;;;;;15.82;56.04;96636.72;5426719;26;20010;-60
2024/05/02 03:48:35;;;;;;;20.98;6.80;;;;;;;15.87;55.55;96637.16;5401686;26;20071;-61
2024/05/02 03:51:21;;;;;;;13.32;6.47;;;;;;;16.00;56.04;96661.56;5426650;26;20370;-61
2024/05/02 03:54:07;;;;;;;14.82;5.80;;;;;;;15.93;56.00;96633.13;5426493;26;20017;-60
2024/05/02 03:56:52;;;;;;;13.05;6.05;;;;;;;16.02;56.15;96664.09;5426619;26;20006;-66
2024/05/02 03:59:38;;;;;;;14.80;5.22;;;;;;;16.08;56.23;96663.56;5426777;26;20045;-61
2024/05/02 04:02:24;;;;;;;12.65;5.65;;;;;;;16.09;56.57;96661.75;5426368;26;20009;-62
2024/05/02 04:05:10;;;;;;;10.27;4.47;;;;;;;16.13;56.54;96657.84;5426213;26;20057;-61
2024/05/02 04:07:56;;;;;;;8.68;5.00;;;;;;;16.10;56.29;96656.31;5426230;26;20067;-60
2024/05/02 04:10:42;;;;;;;7.97;4.30;;;;;;;16.11;56.62;96662.44;5425862;26;20137;-61
2024/05/02 04:13:28;;;;;;;7.30;3.90;;;;;;;16.03;57.09;96649.88;5401509;26;20330;-65
2024/05/02 04:16:13;;;;;;;7.45;3.88;;;;;;;16.05;57.45;96658.53;5425166;26;20031;-60
2024/05/02 04:19:01;;;;;;;7.03;3.75;;;;;;;16.07;57.54;96650.47;5426318;26;20009;-61
2024/05/02 04:21:47;;;;;;;7.78;4.40;;;;;;;15.97;57.23;96635.38;5453012;26;20027;-63
2024/05/02 04:24:33;;;;;;;6.78;4.13;;;;;;;16.12;57.40;96657.00;5401281;26;20071;-61
2024/05/02 04:27:19;;;;;;;6.63;3.88;;;;;;;16.16;57.01;96661.09;5426193;26;20470;-60
2024/05/02 04:30:05;;;;;;;7.30;4.57;;;;;;;16.21;57.36;96658.00;5401132;26;20007;-61
2024/05/02 04:32:51;;;;;;;8.60;4.35;;;;;;;16.03;56.75;96610.16;5426147;26;20063;-60
2024/05/02 04:35:37;;;;;;;7.38;4.00;;;;;;;16.38;57.05;96649.41;5425763;26;20031;-62
2024/05/02 04:38:25;;;;;;;7.25;4.25;;;;;;;16.44;57.22;96658.63;5425737;26;20010;-63
2024/05/02 04:41:11;;;;;;;6.03;4.00;;;;;;;16.23;57.59;96650.75;5452601;26;20457;-62
2024/05/02 04:43:57;;;;;;;6.38;3.72;;;;;;;16.31;57.59;96658.88;5425618;26;20005;-62
2024/05/02 04:46:43;;;;;;;7.45;4.30;;;;;;;16.21;57.50;96666.78;5425735;26;20071;-60
2024/05/02 04:49:29;;;;;;;6.03;3.63;;;;;;;16.21;56.89;96660.66;5425629;26;20041;-61
2024/05/02 04:52:15;;;;;;;5.80;3.67;;;;;;;16.14;57.04;96655.06;5400554;26;20038;-60
2024/05/02 04:55:01;;;;;;;7.80;3.95;;;;;;;16.19;57.78;96654.66;5425508;26;20006;-64
2024/05/02 04:57:49;;;;;;;5.75;4.05;;;;;;;16.11;57.58;96660.66;5400562;26;20005;-61
2024/05/02 05:00:35;;;;;;;10.20;3.53;;;;;;;16.31;57.57;96652.75;5425783;26;20013;-62
2024/05/02 05:03:21;;;;;;;5.32;3.58;;;;;;;16.37;57.20;96652.19;5425550;26;20449;-66
2024/05/02 05:06:07;;;;;;;6.30;3.60;;;;;;;16.00;57.52;96629.78;5452455;26;20395;-61
2024/05/02 05:08:53;;;;;;;5.40;3.60;;;;;;;15.94;58.15;96646.22;5452369;26;20298;-60
2024/05/02 05:11:39;;;;;;;5.82;4.18;;;;;;;15.89;58.27;96621.13;5400219;26;20035;-61
2024/05/02 05:14:25;;;;;;;13.80;3.72;;;;;;;15.81;58.66;96616.50;5425013;26;20389;-61
2024/05/02 05:17:11;;;;;;;5.88;3.63;;;;;;;16.20;57.72;96643.13;5452127;26;20035;-65
2024/05/02 05:19:57;;;;;;;6.18;3.63;;;;;;;16.09;57.83;96629.97;5425186;26;20010;-63
2024/05/02 05:22:43;;;;;;;5.93;3.75;;;;;;;16.22;58.16;96634.03;5424850;26;20005;-64
2024/05/02 05:25:29;;;;;;;6.80;3.97;;;;;;;16.44;58.60;96629.47;5424941;26;20030;-64
2024/05/02 05:28:15;;;;;;;6.43;3.75;;;;;;;16.42;57.34;96628.75;5428452;26;20067;-66
2024/05/02 05:31:01;;;;;;;6.05;3.40;;;;;;;16.55;56.37;96639.13;5428545;26;20006;-66
2024/05/02 05:33:48;;;;;;;5.57;3.72;;;;;;;16.36;57.28;96593.06;5403564;26;20005;-64
2024/05/02 05:36:33;;;;;;;5.50;3.53;;;;;;;16.37;56.88;96628.34;5428456;26;20009;-60
2024/05/02 05:39:20;;;;;;;5.65;3.90;;;;;;;16.51;58.46;96627.97;5403520;26;20035;-60
2024/05/02 05:42:05;;;;;;;7.43;4.00;;;;;;;16.58;56.72;96629.09;5455302;26;20048;-60
2024/05/02 05:44:51;;;;;;;7.05;3.67;;;;;;;16.71;56.68;96631.44;5403531;26;20036;-59
2024/05/02 05:47:37;;;;;;;5.57;3.67;;;;;;;16.58;57.11;96615.81;5428134;26;20068;-62
2024/05/02 05:50:24;;;;;;;8.32;4.20;;;;;;;16.85;56.58;96624.09;5428204;26;20013;-61
2024/05/02 05:53:11;;;;;;;6.22;3.50;;;;;;;16.77;57.91;96625.59;5428218;26;20010;-59
2024/05/02 05:55:56;;;;;;;5.30;3.22;;;;;;;16.95;56.21;96620.44;5428110;26;20005;-60
2024/05/02 05:58:42;;;;;;;4.63;3.55;;;;;;;16.94;55.58;96617.94;5428204;26;20068;-60
2024/05/02 06:01:28;;;;;;;4.95;3.33;;;;;;;16.94;55.59;96613.47;5428026;26;20006;-60
2024/05/02 06:04:14;;;;;;;7.88;3.35;;;;;;;16.87;56.08;96619.47;5427804;26;20067;-60
2024/05/02 06:07:01;;;;;;;4.88;3.22;;;;;;;16.53;56.62;96583.59;5454762;26;20045;-60
2024/05/02 06:09:47;;;;;;;5.10;3.50;;;;;;;16.71;56.59;96602.28;5403117;26;20006;-60
2024/05/02 06:12:33;;;;;;;10.88;3.50;;;;;;;16.59;57.02;96612.19;5454790;26;20352;-60
2024/05/02 06:15:19;;;;;;;6.15;3.28;;;;;;;16.57;56.86;96597.41;5428013;26;20077;-61
2024/05/02 06:18:06;;;;;;;7.88;2.95;;;;;;;16.54;56.27;96573.81;5427969;26;20009;-65
2024/05/02 06:20:52;;;;;;;5.10;3.40;;;;;;;16.77;56.61;96598.22;5427809;26;20386;-64
2024/05/02 06:23:38;;;;;;;6.57;3.42;;;;;;;16.79;56.94;96585.66;5403100;26;20005;-62
2024/05/02 06:26:25;;;;;;;4.97;3.50;;;;;;;17.14;55.44;96598.38;5403172;26;20005;-60
2024/05/02 06:29:10;;;;;;;4.82;3.40;;;;;;;17.08;55.69;96592.78;5427476;26;20009;-62
2024/05/02 06:31:56;;;;;;;4.72;3.30;;;;;;;17.38;56.57;96597.03;5403094;26;20021;-61
2024/05/02 06:34:42;;;;;;;6.57;3.47;;;;;;;17.48;55.05;96592.53;5421218;26;20471;-68
2024/05/02 06:37:28;;;;;;;6.05;4.00;;;;;;;17.44;54.52;96587.66;5475310;26;20360;-64
2024/05/02 06:40:14;;;;;;;6.22;3.70;;;;;;;17.55;55.38;96580.34;5403033;26;20037;-64
2024/05/02 06:43:06;;;;;;;7.15;3.33;;;;;;;17.48;54.02;96558.00;5470736;26;20020;-60
2024/05/02 06:45:51;;;;;;;5.15;3.28;;;;;;;17.73;54.53;96574.25;5461014;26;20078;-62
2024/05/02 06:48:37;;;;;;;5.28;2.88;;;;;;;17.52;55.62;96542.63;5462408;26;20017;-60
2024/05/02 06:51:29;;;;;;;6.57;3.50;;;;;;;17.65;55.55;96536.97;5485860;26;20013;-62
2024/05/02 06:54:15;;;;;;;5.20;3.40;;;;;;;17.73;54.22;96556.50;5460729;26;20017;-63
2024/05/02 06:57:01;;;;;;;4.72;2.97;;;;;;;17.85;54.11;96558.97;5490515;26;20038;-60
2024/05/02 06:59:49;;;;;;;6.88;3.70;;;;;;;18.02;54.13;96557.38;5461882;26;20005;-64
2024/05/02 07:02:35;;;;;;;6.70;3.47;;;;;;;18.05;54.05;96546.41;5451230;26;20071;-65
2024/05/02 07:05:23;;;;;;;5.30;3.33;;;;;;;18.04;53.29;96552.75;5453766;26;20071;-60
2024/05/02 07:08:10;;;;;;;7.28;2.67;;;;;;;18.23;52.43;96531.34;5426933;26;20021;-63
2024/05/02 07:10:56;;;;;;;5.07;2.97;;;;;;;18.41;51.40;96543.78;5447802;26;20017;-65
2024/05/02 07:13:42;;;;;;;4.30;2.67;;;;;;;18.45;49.55;96554.00;5429062;26;20392;-65
2024/05/02 07:16:28;;;;;;;70.85;30.90;;;;;;;18.76;49.61;96542.09;5427521;26;20006;-65
2024/05/02 07:19:14;;;;;;;29.52;11.80;;;;;;;18.93;49.73;96540.44;5434485;26;20013;-66
2024/05/02 07:22:01;;;;;;;4.45;2.40;;;;;;;19.27;48.68;96532.47;5463210;26;20058;-65
2024/05/02 07:24:48;;;;;;;4.10;2.53;;;;;;;19.41;48.23;96526.59;5461413;26;20453;-62
2024/05/02 07:27:33;;;;;;;4.95;2.60;;;;;;;19.14;47.85;96524.09;5462656;26;20005;-62
2024/05/02 07:30:19;;;;;;;5.22;2.75;;;;;;;19.11;49.50;96513.75;5463069;26;20004;-62
2024/05/02 07:33:08;;;;;;;4.10;2.40;;;;;;;19.25;47.48;96505.19;5462846;26;20071;-61
2024/05/02 07:35:55;;;;;;;6.57;2.83;;;;;;;19.31;47.89;96493.91;5462870;26;20005;-64
2024/05/02 07:38:41;;;;;;;4.00;2.55;;;;;;;19.23;47.21;96504.50;5437717;26;20062;-65
2024/05/02 07:41:26;;;;;;;6.07;2.53;;;;;;;19.37;47.32;96529.72;5462830;26;20005;-65
2024/05/02 07:44:12;;;;;;;4.07;2.50;;;;;;;19.53;47.43;96518.28;5462582;26;20004;-61
2024/05/02 07:46:58;;;;;;;4.53;2.33;;;;;;;19.95;49.29;96517.47;5437279;26;20006;-64
2024/05/02 07:49:44;;;;;;;4.72;2.22;;;;;;;19.94;46.31;96519.31;5462819;26;20373;-65
2024/05/02 07:52:32;;;;;;;4.70;2.72;;;;;;;19.76;46.08;96530.09;5462609;26;20009;-59
2024/05/02 07:55:18;;;;;;;4.55;2.42;;;;;;;19.30;46.70;96505.53;5489643;26;20008;-62
2024/05/02 07:58:07;;;;;;;5.45;2.50;;;;;;;19.53;46.56;96503.16;5462496;26;20096;-62
2024/05/02 08:00:55;;;;;;;4.20;2.47;;;;;;;20.03;46.42;96520.16;5462985;26;20027;-65
2024/05/02 08:03:41;;;;;;;6.93;4.20;;;;;;;20.39;46.18;96511.88;5462135;26;20005;-61
2024/05/02 08:06:28;;;;;;;3.55;2.45;;;;;;;19.98;45.39;96515.31;5489437;26;20574;-61
2024/05/02 08:09:13;;;;;;;2.97;2.20;;;;;;;20.41;45.63;96498.38;5437007;26;20016;-61
2024/05/02 08:11:59;;;;;;;6.22;2.63;;;;;;;20.55;44.66;96493.22;5436925;26;20066;-60
2024/05/02 08:14:46;;;;;;;9.80;2.38;;;;;;;20.70;45.05;96495.25;5437125;26;20346;-62
2024/05/02 08:17:32;;;;;;;4.03;2.40;;;;;;;20.99;44.92;96486.72;5436912;26;20091;-62
2024/05/02 08:20:18;;;;;;;3.17;2.08;;;;;;;21.09;44.36;96481.16;5462579;26;20088;-63
2024/05/02 08:23:04;;;;;;;4.57;2.50;;;;;;;20.84;44.85;96483.06;5462073;26;20009;-65
2024/05/02 08:25:50;;;;;;;4.65;2.47;;;;;;;20.89;43.33;96483.38;5461783;26;20005;-60
2024/05/02 08:28:37;;;;;;;3.67;2.38;;;;;;;20.48;44.29;96499.38;5461659;26;20004;-62
2024/05/02 08:31:23;;;;;;;5.00;2.20;;;;;;;20.97;44.28;96482.53;5462028;26;20005;-63
2024/05/02 08:34:09;;;;;;;7.50;2.17;;;;;;;21.13;43.57;96482.50;5461821;26;20449;-63
2024/05/02 08:36:55;;;;;;;4.00;2.22;;;;;;;21.55;45.03;96472.56;5461382;26;20449;-62
2024/05/02 08:39:42;;;;;;;4.78;2.22;;;;;;;21.55;42.41;96485.91;5488964;26;20165;-61
2024/05/02 08:42:28;;;;;;;3.42;2.40;;;;;;;21.13;43.57;96488.66;5436478;26;20030;-64
2024/05/02 08:45:15;;;;;;;4.93;2.33;;;;;;;21.30;42.42;96481.47;5436309;26;20457;-64
2024/05/02 08:48:11;;;;;;;5.57;2.33;;;;;;;21.26;42.95;96480.13;5461400;26;20370;-65
2024/05/02 08:50:58;;;;;;;4.20;2.17;;;;;;;21.11;42.51;96463.16;5488568;26;20070;-63
2024/05/02 08:53:44;;;;;;;4.03;2.05;;;;;;;20.93;42.89;96490.91;5488757;26;20445;-64
2024/05/02 08:56:33;;;;;;;3.95;2.20;;;;;;;21.03;42.54;96495.22;5461588;26;20009;-63
2024/05/02 08:59:22;;;;;;;3.50;2.13;;;;;;;21.02;43.25;96432.97;5461537;26;20062;-61
2024/05/02 09:02:09;;;;;;;4.78;2.13;;;;;;;21.22;42.06;96443.25;5490799;26;20004;-65
2024/05/02 09:04:56;;;;;;;4.05;2.47;;;;;;;22.03;43.70;96478.63;5491947;26;20004;-63
2024/05/02 09:07:42;;;;;;;2.22;1.92;;;;;;;21.69;42.22;96480.66;5439972;26;20063;-61
2024/05/02 09:10:28;;;;;;;6.28;2.17;;;;;;;22.34;43.04;96467.91;5464882;26;20013;-65
2024/05/02 09:13:14;;;;;;;3.10;2.08;;;;;;;22.71;40.85;96466.25;5439859;26;20006;-65
2024/05/02 09:16:01;;;;;;;3.28;2.22;;;;;;;22.85;42.12;96479.88;5464668;26;20398;-63
2024/05/02 09:18:47;;;;;;;3.95;2.40;;;;;;;22.84;40.89;96475.50;5464450;26;20030;-60
2024/05/02 09:21:34;;;;;;;4.88;2.15;;;;;;;22.79;40.04;96486.78;5464524;26;20013;-62
2024/05/02 09:24:22;;;;;;;2.58;1.90;;;;;;;23.04;39.84;96473.16;5439315;26;20449;-62
2024/05/02 09:27:08;;;;;;;3.60;2.15;;;;;;;23.58;38.97;96490.84;5464816;26;20066;-64
2024/05/02 09:29:55;;;;;;;3.38;2.00;;;;;;;22.86;39.02;96481.53;5464523;26;20005;-63
2024/05/02 09:32:42;;;;;;;6.88;2.30;;;;;;;22.81;39.77;96485.56;5464207;26;20346;-63
2024/05/02 09:35:28;;;;;;;3.58;2.15;;;;;;;22.75;39.00;96447.97;5464723;26;20444;-67
2024/05/02 09:38:15;;;;;;;3.25;2.13;;;;;;;22.86;39.22;96482.38;5464698;26;20005;-66
2024/05/02 09:41:06;;;;;;;6.22;2.45;;;;;;;23.13;40.16;96456.00;5439263;26;20034;-62
2024/05/02 09:44:02;;;;;;;4.13;2.72;;;;;;;23.34;37.89;96461.44;5439261;26;20005;-65
2024/05/02 09:47:02;;;;;;;7.78;2.53;;;;;;;24.17;39.13;96431.72;5439169;26;20004;-63
2024/05/02 09:49:55;;;;;;;4.40;2.42;;;;;;;24.55;36.17;96457.47;5438749;26;20035;-64
2024/05/02 09:52:43;;;;;;;5.03;2.08;;;;;;;25.08;36.67;96447.13;5464714;26;20005;-62
2024/05/02 09:55:33;;;;;;;5.05;2.15;;;;;;;25.22;38.01;96448.84;5414329;26;20109;-63
2024/05/02 09:58:20;;;;;;;3.80;2.20;;;;;;;24.31;36.45;96433.50;5464117;26;20344;-62
2024/05/02 10:01:07;;;;;;;5.78;2.25;;;;;;;24.81;39.14;96464.91;5438928;26;20399;-65
2024/05/02 10:03:59;;;;;;;3.47;1.90;;;;;;;25.32;35.47;96450.38;5439168;26;20385;-66
2024/05/02 10:06:47;;;;;;;4.85;2.10;;;;;;;25.70;34.93;96456.13;5464450;26;20477;-64
2024/05/02 10:09:34;;;;;;;3.05;2.10;;;;;;;26.10;35.48;96450.09;5463915;26;20067;-66
2024/05/02 10:12:20;;;;;;;3.33;2.00;;;;;;;25.85;35.14;96452.50;5490145;26;20013;-64
2024/05/02 10:15:13;;;;;;;2.75;1.90;;;;;;;25.10;36.58;96444.25;5464290;26;20005;-62
2024/05/02 10:18:02;;;;;;;3.63;2.10;;;;;;;25.40;36.71;96458.28;5415050;26;20004;-63
2024/05/02 10:20:51;;;;;;;4.00;2.10;;;;;;;25.13;36.97;96462.63;5464298;26;20005;-60
2024/05/02 10:23:38;;;;;;;5.28;2.00;;;;;;;24.61;36.63;96470.94;5439529;26;20008;-61
2024/05/02 10:26:46;;;;;;;10.07;2.25;;;;;;;23.88;38.15;96464.81;5310626;27;20008;-65
2024/05/02 10:29:33;;;;;;;2.50;1.80;;;;;;;23.55;38.46;96463.38;5310365;27;20079;-59
2024/05/02 10:32:19;;;;;;;3.60;1.90;;;;;;;24.04;40.16;96432.38;5286691;27;20008;-66
2024/05/02 10:35:06;;;;;;;4.32;1.98;;;;;;;24.73;37.11;96449.78;5286692;27;20393;-62
2024/05/02 10:37:59;;;;;;;2.85;1.90;;;;;;;24.47;36.17;96418.16;5310505;27;20011;-62
2024/05/02 10:40:45;;;;;;;4.32;1.85;;;;;;;24.49;36.39;96448.31;5310470;27;20016;-63
2024/05/02 10:43:33;;;;;;;3.08;1.92;;;;;;;26.15;33.83;96413.47;5286568;27;20012;-63
2024/05/02 10:46:19;;;;;;;4.80;1.90;;;;;;;25.52;34.64;96434.38;5263033;27;20009;-62
2024/05/02 10:49:05;;;;;;;2.30;1.42;;;;;;;27.37;30.84;96442.03;5286463;27;20056;-59
2024/05/02 10:51:51;;;;;;;3.00;1.73;;;;;;;26.91;30.24;96432.97;5286150;27;20075;-60
2024/05/02 10:54:37;;;;;;;5.15;1.48;;;;;;;26.83;31.53;96438.59;5286060;27;20020;-60
2024/05/02 10:57:23;;;;;;;4.53;1.60;;;;;;;29.25;30.36;96426.31;5286320;27;20009;-65
2024/05/02 11:00:10;;;;;;;3.75;1.65;;;;;;;28.02;29.27;96423.91;5286686;27;20012;-60
2024/05/02 11:02:56;;;;;;;2.13;1.40;;;;;;;28.26;29.56;96432.31;5317720;26;20063;-65
2024/05/02 11:05:46;;;;;;;3.85;1.40;;;;;;;27.26;33.04;96420.06;5463785;26;20009;-63
2024/05/02 11:08:50;;;;;;;2.35;1.52;;;;;;;27.83;30.21;96427.53;5490334;26;20453;-63
2024/05/02 11:11:37;;;;;;;3.40;1.50;;;;;;;28.36;28.76;96429.94;5463085;26;20075;-65
2024/05/02 11:14:24;;;;;;;1.88;1.40;;;;;;;25.39;32.57;96427.91;5437912;26;20005;-61
2024/05/02 11:17:11;;;;;;;4.15;1.70;;;;;;;26.49;31.37;96435.88;5438071;26;20133;-60
2024/05/02 11:20:03;;;;;;;2.10;1.60;;;;;;;26.95;31.06;96426.13;5490098;26;20366;-61
2024/05/02 11:22:55;;;;;;;4.88;1.70;;;;;;;29.12;28.79;96408.31;5490037;26;20341;-60
2024/05/02 11:25:44;;;;;;;5.63;1.75;;;;;;;28.47;26.68;96414.91;5462792;26;20072;-62
2024/05/02 11:28:32;;;;;;;1.77;1.30;;;;;;;28.44;26.41;96420.75;5462639;26;20338;-61
2024/05/02 11:31:20;;;;;;;2.90;1.50;;;;;;;25.96;29.85;96430.41;5490088;26;20376;-60
2024/05/02 11:34:06;;;;;;;1.50;1.20;;;;;;;26.56;29.13;96417.84;5437520;26;20457;-64
2024/05/02 11:36:52;;;;;;;1.63;1.33;;;;;;;27.83;27.86;96408.66;5437619;26;20010;-60
2024/05/02 11:39:38;;;;;;;1.15;1.08;;;;;;;28.11;29.06;96415.56;5489991;26;20020;-61
2024/05/02 11:42:24;;;;;;;1.52;1.20;;;;;;;28.41;27.64;96400.41;5462637;26;20065;-62
2024/05/02 11:45:10;;;;;;;2.13;1.20;;;;;;;28.24;28.43;96400.13;5437639;26;20005;-63
2024/05/02 11:47:56;;;;;;;1.63;1.25;;;;;;;30.86;27.46;96391.38;5490081;26;20008;-60
2024/05/02 11:50:42;;;;;;;2.20;1.30;;;;;;;29.80;25.21;96391.13;5463174;26;20094;-62
2024/05/02 11:53:29;;;;;;;2.83;1.20;;;;;;;30.76;25.35;96369.44;5462533;26;20495;-61
2024/05/02 11:56:16;;;;;;;5.38;1.40;;;;;;;29.75;26.39;96386.38;5462612;26;20399;-64
2024/05/02 11:59:02;;;;;;;1.40;1.30;;;;;;;28.80;28.98;96394.91;5437416;26;20337;-63
2024/05/02 12:01:48;;;;;;;5.88;1.40;;;;;;;26.77;29.78;96399.84;5462493;26;20004;-65
2024/05/02 12:04:35;;;;;;;1.50;1.20;;;;;;;25.37;32.01;96404.91;5451680;26;20389;-61
2024/05/02 12:07:21;;;;;;;5.13;1.63;;;;;;;24.81;33.53;96398.63;5426675;26;20006;-64
2024/05/02 12:10:07;;;;;;;2.50;1.48;;;;;;;25.11;33.36;96390.31;5426612;26;20005;-61
2024/05/02 12:12:53;;;;;;;2.65;1.42;;;;;;;27.83;29.25;96365.47;5451787;26;20006;-64
2024/05/02 12:15:39;;;;;;;2.97;1.33;;;;;;;28.73;28.64;96380.66;5426558;26;20005;-60
2024/05/02 12:18:25;;;;;;;2.65;1.25;;;;;;;26.88;29.54;96406.47;5426419;26;20002;-61
2024/05/02 12:21:12;;;;;;;2.17;1.20;;;;;;;26.65;29.37;96402.34;5451597;26;20068;-66
2024/05/02 12:24:01;;;;;;;2.25;1.13;;;;;;;25.81;30.51;96398.28;5426397;26;20462;-60
2024/05/02 12:26:50;;;;;;;3.92;1.17;;;;;;;25.46;30.91;96382.22;5426538;26;20068;-59
2024/05/02 12:29:35;;;;;;;2.67;1.20;;;;;;;24.36;32.29;96392.66;5426078;26;20072;-66
2024/05/02 12:32:21;;;;;;;2.15;1.20;;;;;;;23.93;33.53;96400.72;5451379;26;20005;-66
2024/05/02 12:35:07;;;;;;;1.65;1.10;;;;;;;25.56;31.99;96392.59;5425852;26;20006;-60
2024/05/02 12:37:54;;;;;;;1.65;1.20;;;;;;;25.57;32.08;96384.31;5425937;26;20008;-61
2024/05/02 12:40:42;;;;;;;4.28;1.58;;;;;;;25.69;32.14;96395.34;5451269;26;20009;-61
2024/05/02 12:43:28;;;;;;;3.10;1.20;;;;;;;24.91;31.64;96384.00;5426112;26;20396;-60
2024/05/02 12:46:14;;;;;;;2.72;1.20;;;;;;;24.18;32.25;96381.56;5426242;26;20006;-60
2024/05/02 12:49:10;;;;;;;2.38;1.30;;;;;;;24.16;33.30;96375.56;5450859;26;20034;-63
2024/05/02 12:51:56;;;;;;;4.80;1.40;;;;;;;24.12;33.59;96367.88;5452391;26;20072;-60
2024/05/02 12:54:43;;;;;;;1.67;1.08;;;;;;;23.42;34.15;96377.47;5450986;26;20454;-59
2024/05/02 12:57:35;;;;;;;2.25;1.48;;;;;;;23.41;34.49;96372.28;5450989;26;20396;-62
2024/05/02 13:00:21;;;;;;;3.90;1.25;;;;;;;23.42;34.33;96385.50;5426056;26;20014;-63
2024/05/02 13:03:07;;;;;;;2.45;1.30;;;;;;;23.44;35.67;96390.66;5450677;26;20006;-59
2024/05/02 13:05:53;;;;;;;5.60;1.40;;;;;;;23.00;36.77;96387.81;5425603;26;20031;-59